Rondeau, Canada
Current Conditions -  °F | °C
As of 3:00 AM on Tuesday 21 Oct 2014 (Local Time) from CYCK Reporting Station
Overcast Overcast  
Wind Chill: 10°   Ceiling: 2100
Heat Index: 10°   Visibility: 9mi
Dew Point:   Wind: 8mph
Humidity: 94%   Direction: 330°NNW
Pressure: 29.85"   Gusts: NA
Location:  42.28°N, 81.87°W
Report Text: CYCK 210700Z AUTO 33007KT 9SM SCT013 BKN021 OVC026 10/09 A2985 RMK SLP110
Loading
Personal Weather Stations






























Interactive Weather Map
Tropical Storm Tracking
New forecast layout! Learn more

10-Day Weather Forecast

Advertisements
Track Severe Weather on mobile